Ambler Airport
PAFM : now visible

Airfield :











YOU CAN JOIN US ON...

 
LOGIN :

Register | Disclaimer

   EN    FR    IT 

 









Legend :    VFR   Marginal VFR   IFR   Intensive IFR   Very Intensive IFR
Visi :
Ceiling :
>= 8 km
>= 3000ft
5 to 8 km
1000 to 3000 ft
1500m to 5 km
500 to 1000 ft
800 to 1500m
200 to 500 ft
< 800m
< 200 ft
Symbols :   Thunderstorms  Fog  Heavy snow  Heavy precipitations  Wind > 20 kt






- Airport Elevation : 334 ft
- IATA code : AFM


PAFM - Ambler

CURRENT METAR :
  • 020656Z AUTO 10009G17KT 10SM CLR M05/M13 A3017 RMK AO2 SLP225 T10501133 FZRANO

EXPIRED METARs :
  • 020556Z AUTO 11011KT 10SM CLR M04/M13 A3018 RMK AO2 SLP229 T10441133 11022 21044 56013 FZRANO
  • 020456Z AUTO 12007KT 10SM CLR M04/M14 A3019 RMK AO2 SLP233 T10391139 FZRANO

TAF N/A



MET'MAP, your aeronautical weather chart ! - Copyright ORBIFLY December 2007 - Disclaimer

ORBIFLY MET'MAP TEAM :

Programming & Development : Alexandra Zaïnal
Concept & original design : Baudouin d'Aumeries
Assistance for programming : Marc-Olivier Méhu
Technical & hardware support : Manuel Goepfert

Contact : metmap@orbifly.com




SOURCES & CREDITS :

   NOAA       Earth
Advisory